Latest Weather Observations for Blackall

IDQ60801

Issued at 7:52 am EST Monday 3 October 2022 (issued every 10 minutes, with the page automatically refreshed every 10 minutes)

About weather observations | Map of weather stations | Latest weather observations for QLD | Other Formats
Station Details ID: 036034 Name: BLACKALL AIRPORT Lat: -24.43 Lon: 145.43 Height: 281.3 m
Data from the previous 72 hours. | See also: Recent months at Blackall
Date/Time
EST
Temp
°C
App
Temp
°C
Dew
Point
°C
Rel
Hum
%
Delta-T
°C
Wind Press
QNH
hPa
Press
MSL
hPa
Rain since
9am
mm
Dir  Spd
km/h
Gust
km/h
Spd
kts
Gust
kts
03/07:30am 18.8 15.6 10.1 57 4.7 ESE 17 22 9 12 1015.9 1014.4 0.0
03/07:00am 17.6 14.3 9.5 59 4.3 E 17 22 9 12 1015.3 1013.8 0.0
03/06:30am 16.5 13.3 8.5 59 4.1 ESE 15 20 8 11 1015.0 1013.5 0.0
03/06:00am 16.6 12.9 7.8 56 4.5 ESE 17 26 9 14 1014.8 1013.3 0.0
03/05:30am 16.7 12.9 7.6 55 4.6 ESE 17 20 9 11 1014.6 1013.1 0.0
03/05:00am 17.0 12.8 7.4 53 4.9 ESE 19 26 10 14 1014.3 1012.8 0.0
03/04:30am 17.3 13.4 7.1 51 5.2 ESE 17 24 9 13 1014.3 1012.8 0.0
03/04:00am 17.4 13.1 6.9 50 5.3 ESE 19 22 10 12 1013.5 1012.1 0.0
03/03:30am 17.5 13.0 6.1 47 5.7 ESE 19 24 10 13 1013.8 1012.4 0.0
03/03:00am 17.7 13.5 5.9 46 5.8 SE 17 22 9 12 1013.9 1012.5 0.0
03/02:30am 18.0 14.2 5.6 44 6.1 SE 15 24 8 13 1014.2 1012.7 0.0
03/02:00am 18.1 14.2 5.3 43 6.3 SE 15 22 8 12 1014.0 1012.6 0.0
03/01:30am 18.0 14.1 5.2 43 6.3 SE 15 19 8 10 1014.0 1012.6 0.0
03/01:00am 19.0 14.6 4.7 39 7.0 SE 17 24 9 13 1014.4 1012.9 0.0
03/12:30am 18.9 15.0 5.4 41 6.7 SE 15 20 8 11 1014.6 1013.1 0.0
03/12:00am 18.8 15.2 4.9 40 6.8 SE 13 20 7 11 1014.8 1013.3 0.0
 
Date/Time
EST
Temp
°C
App
Temp
°C
Dew
Point
°C
Rel
Hum
%
Delta-T
°C
Wind Press
QNH
hPa
Press
MSL
hPa
Rain since
9am
mm
Dir  Spd
km/h
Gust
km/h
Spd
kts
Gust
kts
02/11:30pm 19.2 15.6 4.9 39 7.0 SE 13 19 7 10 1014.7 1013.2 0.0
02/11:00pm 19.7 15.7 5.0 38 7.3 SE 15 19 8 10 1014.9 1013.4 0.0
02/10:30pm 20.0 16.4 4.9 37 7.5 SE 13 20 7 11 1014.9 1013.4 0.0
02/10:00pm 20.0 16.5 5.3 38 7.3 SE 13 15 7 8 1014.7 1013.2 0.0
02/09:30pm 19.8 16.7 5.5 39 7.1 SE 11 17 6 9 1014.5 1013.0 0.0
02/09:00pm 20.2 17.5 5.4 38 7.4 SE 9 13 5 7 1014.2 1012.7 0.0
02/08:30pm 21.0 17.8 5.0 35 8.0 SSE 11 15 6 8 1013.9 1012.5 0.0
02/08:00pm 20.9 18.0 4.9 35 8.0 SE 9 13 5 7 1013.3 1011.8 0.0
02/07:30pm 21.8 18.9 4.4 32 8.6 SSE 9 11 5 6 1013.2 1011.7 0.0
02/07:00pm 22.6 19.6 4.2 30 9.1 SSE 9 11 5 6 1012.8 1011.3 0.0
02/06:30pm 23.8 21.0 3.2 26 10.1 S 7 9 4 5 1012.4 1010.9 0.0
02/06:00pm 25.4 21.5 3.4 24 11.0 S 13 19 7 10 1011.8 1010.3 0.0
02/05:30pm 26.6 22.4 3.8 23 11.5 S 15 20 8 11 1011.6 1010.1 0.0
02/05:00pm 27.1 23.1 4.8 24 11.5 SSE 15 22 8 12 1011.3 1009.8 0.0
02/04:30pm 27.3 23.6 4.4 23 11.8 SSE 13 19 7 10 1011.2 1009.7 0.0
02/04:00pm 27.9 24.3 6.6 26 11.4 S 15 22 8 12 1011.2 1009.7 0.0
02/03:30pm 28.0 23.8 7.3 27 11.2 S 19 28 10 15 1011.0 1009.5 0.0
02/03:00pm 27.3 22.7 5.6 25 11.4 S 19 32 10 17 1011.1 1009.6 0.0
02/02:30pm 27.9 23.5 6.6 26 11.4 SSE 19 26 10 14 1011.0 1009.5 0.0
02/02:00pm 28.6 23.8 7.2 26 11.6 S 22 35 12 19 1011.3 1009.8 0.0
02/01:30pm 28.9 24.5 7.5 26 11.7 SSW 20 30 11 16 1011.4 1009.9 0.0
02/01:00pm 28.9 25.5 5.7 23 12.3 WSW 13 22 7 12 1011.9 1010.4 0.0
02/12:30pm 27.7 24.4 8.1 29 10.7 SE 15 20 8 11 1012.4 1010.9 0.0
02/12:00pm 27.1 23.8 8.0 30 10.4 SSW 15 24 8 13 1012.9 1011.4 0.0
02/11:30am 27.1 24.7 8.5 31 10.2 SSE 11 22 6 12 1013.4 1011.9 0.0
02/11:00am 26.3 24.9 9.6 35 9.3 SSE 7 19 4 10 1013.7 1012.3 0.0
02/10:30am 25.7 24.6 9.9 37 8.8 S 6 9 3 5 1014.0 1012.6 0.0
02/10:00am 23.9 22.3 10.2 42 7.6 N 9 15 5 8 1014.3 1012.8 0.0
02/09:30am 23.2 21.6 11.6 48 6.6 N 11 15 6 8 1014.4 1012.9 0.0
02/09:00am 22.2 21.3 10.7 48 6.4 N 6 13 3 7 1014.5 1013.0 0.0
02/08:30am 20.4 18.8 10.2 52 5.6 NE 9 17 5 9 1014.6 1013.1 0.0
02/08:00am 19.4 17.3 9.9 54 5.1 ENE 11 15 6 8 1014.2 1012.7 0.0
02/07:30am 18.3 16.3 8.6 53 5.1 ESE 9 13 5 7 1013.9 1012.5 0.0
02/07:00am 16.4 13.9 8.1 58 4.3 SE 11 15 6 8 1013.2 1011.7 0.0
02/06:30am 16.1 13.4 7.3 56 4.4 SSE 11 15 6 8 1012.8 1011.3 0.0
02/06:00am 16.2 13.0 6.9 54 4.7 SE 13 17 7 9 1012.5 1011.0 0.0
02/05:30am 16.9 13.3 6.7 51 5.1 SE 15 20 8 11 1012.4 1010.9 0.0
02/05:00am 16.5 13.2 6.6 52 4.9 SE 13 20 7 11 1012.3 1010.8 0.0
02/04:30am 16.3 13.4 6.4 52 4.9 ESE 11 15 6 8 1012.4 1010.9 0.0
02/04:00am 16.7 13.8 6.5 51 5.1 SE 11 15 6 8 1012.5 1011.0 0.0
02/03:30am 16.5 13.6 6.6 52 4.9 SE 11 15 6 8 1012.3 1010.8 0.0
02/03:00am 16.6 13.2 6.1 50 5.2 SE 13 19 7 10 1012.1 1010.6 0.0
02/02:30am 17.1 13.0 6.0 48 5.5 SE 17 24 9 13 1012.3 1010.8 0.0
02/02:00am 18.4 14.2 5.9 44 6.2 SSE 17 22 9 12 1012.3 1010.8 0.0
02/01:30am 17.7 14.3 5.9 46 5.8 SSE 13 17 7 9 1012.4 1010.9 0.0
02/01:00am 17.7 14.4 6.3 47 5.7 SSE 13 17 7 9 1012.6 1011.1 0.0
02/12:30am 17.9 14.7 6.7 48 5.6 SSE 13 19 7 10 1012.8 1011.3 0.0
02/12:00am 18.3 14.7 6.8 47 5.8 SSE 15 19 8 10 1012.9 1011.4 0.0
 
Date/Time
EST
Temp
°C
App
Temp
°C
Dew
Point
°C
Rel
Hum
%
Delta-T
°C
Wind Press
QNH
hPa
Press
MSL
hPa
Rain since
9am
mm
Dir  Spd
km/h
Gust
km/h
Spd
kts
Gust
kts
01/11:30pm 18.7 15.2 7.2 47 5.9 SE 15 20 8 11 1012.9 1011.4 0.0
01/11:00pm 18.7 15.9 6.9 46 6.0 S 11 15 6 8 1013.2 1011.7 0.0
01/10:30pm 17.2 16.6 7.5 53 4.9 CALM 0 0 0 0 1013.2 1011.7 0.0
01/10:00pm 18.1 16.4 8.4 53 5.1 ESE 7 9 4 5 1013.1 1011.6 0.0
01/09:30pm 19.0 18.6 8.1 49 5.7 CALM 0 0 0 0 1013.2 1011.7 0.0
01/09:00pm 19.9 19.3 7.6 45 6.4 CALM 0 0 0 0 1013.2 1011.7 0.0
01/08:30pm 21.5 20.5 5.8 36 8.0 CALM 0 0 0 0 1013.0 1011.5 0.0
01/08:00pm 21.1 20.4 8.4 44 6.8 SSE 2 7 1 4 1012.8 1011.3 0.0
01/07:30pm 22.5 21.7 6.7 36 8.2 CALM 0 0 0 0 1012.5 1011.0 0.0
01/07:00pm 23.6 22.8 6.4 33 8.9 CALM 0 0 0 0 1012.4 1010.9 0.0
01/06:30pm 25.3 23.2 3.9 25 10.7 W 4 6 2 3 1012.0 1010.5 0.0
01/06:00pm 26.8 23.6 3.3 22 11.8 W 9 13 5 7 1011.8 1010.3 0.0
01/05:30pm 28.0 25.3 3.7 21 12.4 NW 7 13 4 7 1011.6 1010.1 0.0
01/05:00pm 27.9 25.1 2.9 20 12.6 WNW 7 11 4 6 1011.2 1009.7 0.0
01/04:30pm 28.4 25.2 3.3 20 12.7 WNW 9 19 5 10 1011.3 1009.8 0.0
01/04:00pm 28.8 25.5 4.3 21 12.7 NW 11 17 6 9 1011.1 1009.6 0.0
01/03:30pm 29.5 25.9 4.9 21 12.9 WSW 13 22 7 12 1011.2 1009.7 0.0
01/03:00pm 29.1 26.7 5.2 22 12.6 NNE 7 15 4 8 1011.3 1009.8 0.0
01/02:30pm 27.8 24.9 4.8 23 11.9 W 9 15 5 8 1011.7 1010.2 0.0
01/02:00pm 28.3 26.1 5.2 23 12.1 W 6 11 3 6 1012.2 1010.7 0.0
01/01:30pm 28.0 25.0 6.2 25 11.6 N 11 20 6 11 1012.9 1011.4 0.0
01/01:00pm 27.7 24.7 7.5 28 11.0 NNE 13 20 7 11 1013.5 1012.1 0.0
01/12:30pm 27.6 24.7 6.4 26 11.3 NE 11 17 6 9 1014.3 1012.8 0.0
01/12:00pm 26.6 23.2 6.1 27 10.8 N 13 19 7 10 1014.8 1013.3 0.0
01/11:30am 26.8 25.1 8.3 31 10.1 NW 7 17 4 9 1015.6 1014.1 0.0
01/11:00am 26.1 23.5 9.5 35 9.2 NE 13 20 7 11 1016.2 1014.7 0.0
01/10:30am 24.9 23.2 8.4 35 9.0 ENE 7 15 4 8 1016.6 1015.2 0.0
01/10:00am 24.4 22.3 8.4 36 8.7 ENE 9 15 5 8 1017.0 1015.6 0.0
01/09:30am 23.5 20.6 8.0 37 8.3 NE 13 19 7 10 1017.2 1016.2 0.0
01/09:00am 22.5 19.7 8.6 41 7.5 E 13 17 7 9 1017.1 1016.1 0.0
01/08:30am 21.3 18.6 8.9 45 6.7 ESE 13 17 7 9 1017.0 1016.0 0.0
01/08:00am 19.7 16.9 8.4 48 5.9 ESE 13 19 7 10 1016.8 1015.8 0.0
01/07:30am 16.8 13.9 8.2 57 4.4 ESE 13 20 7 11 1016.8 1015.8 0.0
01/07:00am 14.3 11.7 7.6 64 3.4 SE 11 15 6 8 1016.4 1015.4 0.0
01/06:30am 12.2 9.4 7.1 71 2.5 SE 11 13 6 7 1016.2 1015.2 0.0
01/06:00am 12.1 9.3 6.8 70 2.6 SE 11 15 6 8 1016.1 1015.1 0.0
01/05:30am 12.5 9.2 6.5 67 2.9 SE 13 17 7 9 1015.6 1014.6 0.0
01/05:00am 13.5 9.5 6.6 63 3.4 SSE 17 20 9 11 1015.4 1014.4 0.0
01/04:30am 13.7 9.3 6.6 62 3.5 SE 19 24 10 13 1014.9 1013.8 0.0
01/04:00am 14.1 10.1 6.5 60 3.7 SSE 17 20 9 11 1014.6 1013.5 0.0
01/03:30am 14.4 11.1 6.3 58 4.0 SSE 13 15 7 8 1014.7 1013.6 0.0
01/03:00am 14.6 11.3 6.2 57 4.1 SSE 13 17 7 9 1015.2 1014.1 0.0
01/02:30am 14.6 11.3 6.2 57 4.1 S 13 15 7 8 1015.4 1014.4 0.0
01/02:00am 14.8 12.2 6.1 56 4.2 SSE 9 11 5 6 1015.7 1014.7 0.0
01/01:30am 14.8 11.8 5.9 55 4.3 SSE 11 13 6 7 1015.8 1014.8 0.0
01/01:00am 14.8 12.2 5.9 55 4.3 SE 9 13 5 7 1016.2 1015.2 0.0
01/12:30am 15.1 12.0 5.6 53 4.6 SSE 11 13 6 7 1016.4 1015.4 0.0
01/12:00am 15.5 12.8 5.4 51 4.9 SSE 9 11 5 6 1016.8 1015.8 0.0
 
Date/Time
EST
Temp
°C
App
Temp
°C
Dew
Point
°C
Rel
Hum
%
Delta-T
°C
Wind Press
QNH
hPa
Press
MSL
hPa
Rain since
9am
mm
Dir  Spd
km/h
Gust
km/h
Spd
kts
Gust
kts
30/11:30pm 15.8 12.6 5.1 49 5.1 SE 11 13 6 7 1016.8 1015.8 0.0
30/11:00pm 16.8 13.6 5.1 46 5.7 SSE 11 13 6 7 1017.4 1016.4 0.0
30/10:30pm 16.8 13.9 4.8 45 5.8 SSE 9 11 5 6 1017.2 1016.2 0.0
30/10:00pm 17.3 14.4 4.6 43 6.1 SSE 9 11 5 6 1016.9 1015.9 0.0
30/09:30pm 18.4 15.0 4.2 39 6.8 SSE 11 17 6 9 1016.9 1015.9 0.0
30/09:00pm 18.9 15.1 3.9 37 7.2 SSE 13 17 7 9 1016.8 1015.8 0.0
30/08:30pm 20.0 16.2 3.7 34 7.9 SSE 13 19 7 10 1016.8 1015.8 0.0
30/08:00pm 20.6 17.2 3.8 33 8.1 SSE 11 17 6 9 1017.0 1016.0 0.0
30/07:30pm 21.1 17.7 4.2 33 8.3 SSE 11 15 6 8 1016.9 1015.9 0.0
30/07:00pm 21.5 18.1 4.1 32 8.5 SSE 11 15 6 8 1016.5 1015.5 0.0
30/06:30pm 22.7 19.2 3.3 28 9.5 S 11 15 6 8 1016.3 1015.3 0.0
30/06:00pm 24.0 20.0 2.8 25 10.3 S 13 20 7 11 1015.8 1014.8 0.0
30/05:30pm 25.1 20.2 1.9 22 11.2 S 17 22 9 12 1015.5 1014.5 0.0
30/05:00pm 25.8 21.4 2.5 22 11.4 S 15 24 8 13 1015.4 1014.4 0.0
30/04:30pm 26.1 21.9 4.0 24 11.2 SSE 15 22 8 12 1015.4 1014.4 0.0
30/04:00pm 26.2 22.4 4.1 24 11.2 SE 13 20 7 11 1015.5 1014.5 0.0
30/03:30pm 26.4 21.7 3.0 22 11.6 S 17 26 9 14 1015.5 1014.5 0.0
30/03:00pm 27.0 21.7 2.1 20 12.2 S 19 28 10 15 1015.9 1014.9 0.0
30/02:30pm 26.7 22.1 3.9 23 11.6 SSE 17 28 9 15 1016.2 1015.2 0.0
30/02:00pm 26.2 23.3 4.6 25 11.0 SSE 9 22 5 12 1016.6 1015.6 0.0
30/01:30pm 25.9 23.4 4.9 26 10.8 SSW 7 20 4 11 1017.1 1016.1 0.0
30/01:00pm 25.4 22.3 5.6 28 10.2 SE 11 20 6 11 1017.9 1016.8 0.0
30/12:30pm 24.8 21.1 6.5 31 9.6 SE 15 22 8 12 1018.6 1017.6 0.0
30/12:00pm 24.2 20.3 5.5 30 9.6 SE 15 24 8 13 1019.1 1018.1 0.0
30/11:30am 24.2 20.2 6.5 32 9.3 ESE 17 24 9 13 1019.7 1018.7 0.0
30/11:00am 23.5 18.8 5.9 32 9.0 ESE 20 32 11 17 1020.1 1019.1 0.0
30/10:30am 23.2 19.0 7.3 36 8.4 ESE 19 30 10 16 1020.7 1019.7 0.0
30/10:00am 22.9 18.9 9.0 41 7.5 SE 20 33 11 18 1021.2 1020.2 0.0
30/09:30am 21.6 16.4 7.1 39 7.5 SE 24 32 13 17 1021.4 1020.4 0.0
30/09:00am 21.0 16.8 8.3 44 6.7 SE 20 30 11 16 1021.0 1020.0 0.0
30/08:30am 20.1 15.8 7.8 45 6.4 ESE 20 30 11 16 1020.8 1019.8 0.0
30/08:00am 18.5 15.4 8.7 53 5.1 ESE 15 19 8 10 1020.5 1019.5 0.0

Other formats

Comma delimited format used in spreadsheet applications
http://www.bom.gov.au/fwo/IDQ60801/IDQ60801.95351.axf

JavaScript Object Notation format (JSON) in row-major order
http://www.bom.gov.au/fwo/IDQ60801/IDQ60801.95351.json

Data quality

Most of these data are generated automatically and are frequently updated. Quality checks on data are not normally performed. It is possible for incorrect values to appear. Refer to information at About Latest Weather Observations and please check the disclaimer before using these data.